| time (UTC) | temp F | wind direction | speed knots | gust knots | rain 1hr in | rain 24hr in | rain mn in | humidity % | barometer mb |
| 20260902212037 | 104 | 188 | 2.6 | 4.3 | 0.00 | 0.00 | 0.00 | 59 | |
| 20260902211016 | 104 | 180 | 3.5 | 7.0 | 0.00 | 0.00 | 0.00 | 59 | |
| 20260902210017 | 104 | 197 | 2.6 | 7.0 | 0.00 | 0.00 | 0.00 | 59 | |
| 20260902205017 | 103 | 203 | 1.7 | 4.3 | 0.00 | 0.00 | 0.00 | 60 | |
| 20260902204016 | 106 | 192 | 2.6 | 4.3 | 0.00 | 0.00 | 0.00 | 60 | |
| 20260902203016 | 105 | 185 | 1.7 | 4.3 | 0.00 | 0.00 | 0.00 | 61 | |
| 20260902202018 | 103 | 190 | 0.9 | 4.3 | 0.00 | 0.00 | 0.00 | 61 | |
| 20260902201017 | 102 | 245 | 1.7 | 3.5 | 0.00 | 0.00 | 0.00 | 60 | |
| 20260902200017 | 102 | 284 | 0.9 | 2.6 | 0.00 | 0.00 | 0.00 | 59 | |
| 20260902195037 | 105 | 179 | 1.7 | 7.0 | 0.00 | 0.00 | 0.00 | 60 | |
| 20260902194017 | 105 | 185 | 1.7 | 4.3 | 0.00 | 0.00 | 0.00 | 60 | |
| 20260902193017 | 102 | 182 | 3.5 | 6.1 | 0.00 | 0.00 | 0.00 | 60 | |
| 20260902192017 | 98 | 202 | 2.6 | 8.7 | 0.00 | 0.00 | 0.00 | 60 | |
| 20260902191037 | 99 | 215 | 1.7 | 3.5 | 0.00 | 0.00 | 0.00 | 62 | |
| 20260902190017 | 97 | 223 | 2.6 | 5.2 | 0.00 | 0.00 | 0.00 | 62 | |
| 20260902185016 | 97 | 182 | 2.6 | 7.0 | 0.00 | 0.00 | 0.00 | 61 | |
| 20260902184017 | 97 | 258 | 4.3 | 12.2 | 0.00 | 0.00 | 0.00 | 62 | |
| 20260902183037 | 97 | 223 | 3.5 | 7.8 | 0.00 | 0.00 | 0.00 | 63 | |
| 20260902182016 | 95 | 291 | 4.3 | 7.8 | 0.00 | 0.00 | 0.00 | 63 | |
| 20260902181037 | 95 | 283 | 3.5 | 7.8 | 0.00 | 0.00 | 0.00 | 63 | |
| 20260902180017 | 97 | 216 | 2.6 | 3.5 | 0.00 | 0.00 | 0.00 | 65 | |
| 20260902175017 | 97 | 278 | 1.7 | 4.3 | 0.00 | 0.00 | 0.00 | 67 | |
| 20260902174017 | 97 | 187 | 3.5 | 7.0 | 0.00 | 0.00 | 0.00 | 67 | |
| 20260902173017 | 97 | 184 | 2.6 | 6.1 | 0.00 | 0.00 | 0.00 | 69 | |
| 20260902172016 | 96 | 179 | 2.6 | 6.1 | 0.00 | 0.00 | 0.00 | 71 | |
| 20260902171038 | 95 | 208 | 2.6 | 5.2 | 0.00 | 0.00 | 0.00 | 72 | |
| 20260902170017 | 95 | 295 | 1.7 | 4.3 | 0.00 | 0.00 | 0.00 | 74 | |
| 20260902165017 | 94 | 201 | 1.7 | 4.3 | 0.00 | 0.00 | 0.00 | 76 | |
| 20260902164017 | 94 | 202 | 1.7 | 3.5 | 0.00 | 0.00 | 0.00 | 77 | |
| 20260902163018 | 93 | 203 | 1.7 | 3.5 | 0.00 | 0.00 | 0.00 | 78 | |
| 20260902162017 | 92 | 185 | 3.5 | 5.2 | 0.00 | 0.00 | 0.00 | 78 | |
| 20260902161016 | 92 | 189 | 2.6 | 4.3 | 0.00 | 0.00 | 0.00 | 80 | |
| 20260902160017 | 92 | 181 | 1.7 | 3.5 | 0.00 | 0.00 | 0.00 | 79 | |
| 20260902155017 | 91 | 198 | 3.5 | 8.7 | 0.00 | 0.00 | 0.00 | 80 | |
| 20260902154016 | 91 | 180 | 1.7 | 3.5 | 0.00 | 0.00 | 0.00 | 80 | |
| 20260902153017 | 91 | 206 | 0.9 | 2.6 | 0.00 | 0.00 | 0.00 | 81 | |
| 20260902152037 | 90 | 187 | 0.9 | 1.7 | 0.00 | 0.00 | 0.00 | 81 | |
| 20260902151017 | 89 | 184 | 1.7 | 3.5 | 0.00 | 0.00 | 0.00 | 80 | |
| 20260902150017 | 90 | 212 | 0.9 | 2.6 | 0.00 | 0.00 | 0.00 | 80 | |
| 20260902145017 | 89 | 194 | 0.9 | 1.7 | 0.00 | 0.00 | 0.00 | 81 | |
| 20260902144040 | 88 | 177 | 0.9 | 2.6 | 0.00 | 0.00 | 0.00 | 81 | |
| 20260902143016 | 87 | 182 | 1.7 | 2.6 | 0.00 | 0.00 | 0.00 | 83 | |
| 20260902142017 | 86 | 168 | 0.9 | 0.9 | 0.00 | 0.00 | 0.00 | 85 | |
| 20260902141017 | 85 | 181 | 2.6 | 7.0 | 0.00 | 0.00 | 0.00 | 86 | |
| 20260902140017 | 84 | 176 | 1.7 | 2.6 | 0.00 | 0.00 | 0.00 | 87 | |
| 20260902135017 | 83 | 202 | 0.9 | 2.6 | 0.00 | 0.00 | 0.00 | 87 | |
| 20260902134018 | 82 | 180 | 0.9 | 1.7 | 0.00 | 0.00 | 0.00 | 89 | |
| 20260902133038 | 80 | 198 | 0.9 | 1.7 | 0.00 | 0.00 | 0.00 | 89 | |
| 20260902132037 | 79 | 179 | 0.9 | 1.7 | 0.00 | 0.00 | 0.00 | 89 | |
| 20260902131017 | 78 | 175 | 0.9 | 2.6 | 0.00 | 0.00 | 0.00 | 90 | |
| 20260902130016 | 77 | 182 | 0.9 | 2.6 | 0.00 | 0.00 | 0.00 | 90 | |
| 20260902125016 | 77 | 177 | 0.9 | 2.6 | 0.00 | 0.00 | 0.00 | 89 | |
| 20260902124017 | 76 | 182 | 0.9 | 2.6 | 0.00 | 0.00 | 0.00 | 89 | |
| 20260902123016 | 75 | 180 | 0.0 | 0.9 | 0.00 | 0.00 | 0.00 | 89 | |
| 20260902122016 | 74 | 180 | 0.9 | 1.7 | 0.00 | 0.00 | 0.00 | 88 | |
| 20260902121037 | 74 | 168 | 0.0 | 0.9 | 0.00 | 0.00 | 0.00 | 88 | |
| 20260902120017 | 73 | 144 | 0.0 | 0.9 | 0.00 | 0.00 | 0.00 | 88 | |
| 20260902115016 | 72 | 134 | 0.0 | 0.0 | 0.00 | 0.00 | 0.00 | 88 | |
| 20260902114017 | 72 | 134 | 0.0 | 0.9 | 0.00 | 0.00 | 0.00 | 88 | |
| 20260902113017 | 72 | 0.0 | 0.0 | 0.00 | 0.00 | 0.00 | 88 | ||
| 20260902112017 | 72 | 0.0 | 0.0 | 0.00 | 0.00 | 0.00 | 87 | ||
| 20260902111016 | 72 | 179 | 0.0 | 0.0 | 0.00 | 0.00 | 0.00 | 87 | |
| 20260902110017 | 72 | 177 | 0.0 | 0.9 | 0.00 | 0.00 | 0.00 | 87 | |
| 20260902105017 | 72 | 0.0 | 0.0 | 0.00 | 0.00 | 0.00 | 87 | ||
| 20260902104036 | 72 | 179 | 0.0 | 0.9 | 0.00 | 0.00 | 0.00 | 87 | |
| 20260902103017 | 72 | 179 | 0.0 | 0.9 | 0.00 | 0.00 | 0.00 | 86 | |
| 20260902102017 | 72 | 176 | 0.0 | 0.9 | 0.00 | 0.00 | 0.00 | 86 | |
| 20260902101016 | 72 | 134 | 0.0 | 0.0 | 0.00 | 0.00 | 0.00 | 86 | |
| 20260902100016 | 72 | 134 | 0.0 | 0.9 | 0.00 | 0.00 | 0.00 | 85 | |
| 20260902095017 | 72 | 134 | 0.0 | 0.0 | 0.00 | 0.00 | 0.00 | 85 | |
| 20260902094017 | 73 | 179 | 0.9 | 0.9 | 0.00 | 0.00 | 0.00 | 85 | |
| 20260902093016 | 73 | 179 | 0.9 | 0.9 | 0.00 | 0.00 | 0.00 | 85 | |
| 20260902092017 | 73 | 178 | 0.9 | 0.9 | 0.00 | 0.00 | 0.00 | 84 | |
| 20260902091016 | 72 | 0.0 | 0.0 | 0.00 | 0.00 | 0.00 | 84 | ||
| 20260902090017 | 72 | 0.0 | 0.0 | 0.00 | 0.00 | 0.00 | 84 | ||
| 20260902085016 | 73 | 134 | 0.0 | 0.9 | 0.00 | 0.00 | 0.00 | 83 | |
| 20260902084017 | 73 | 134 | 0.0 | 0.9 | 0.00 | 0.00 | 0.00 | 83 | |
| 20260902083017 | 73 | 0.0 | 0.0 | 0.00 | 0.00 | 0.00 | 83 | ||
| 20260902082017 | 73 | 0.0 | 0.0 | 0.00 | 0.00 | 0.00 | 83 | ||
| 20260902081037 | 73 | 134 | 0.0 | 0.0 | 0.00 | 0.00 | 0.00 | 82 | |
| 20260902080017 | 74 | 134 | 0.0 | 0.0 | 0.00 | 0.00 | 0.00 | 82 | |
| 20260902075016 | 74 | 179 | 0.0 | 0.9 | 0.00 | 0.00 | 0.00 | 82 | |
| 20260902074017 | 74 | 164 | 0.0 | 0.9 | 0.00 | 0.00 | 0.00 | 81 | |
| 20260902073017 | 74 | 152 | 0.0 | 0.9 | 0.00 | 0.00 | 0.00 | 81 | |
| 20260902072018 | 75 | 175 | 0.0 | 0.9 | 0.00 | 0.00 | 0.00 | 81 | |
| 20260902071016 | 75 | 179 | 0.0 | 0.9 | 0.00 | 0.00 | 0.00 | 80 | |
| 20260902070017 | 75 | 179 | 0.0 | 0.9 | 0.00 | 0.00 | 0.00 | 80 | |
| 20260902065017 | 75 | 134 | 0.0 | 0.9 | 0.00 | 0.00 | 0.00 | 80 | |
| 20260902064016 | 76 | 148 | 0.0 | 0.9 | 0.00 | 0.00 | 0.00 | 79 | |
| 20260902063017 | 76 | 164 | 0.9 | 0.9 | 0.00 | 0.00 | 0.00 | 79 | |
| 20260902062016 | 76 | 163 | 0.9 | 1.7 | 0.00 | 0.00 | 0.00 | 79 | |
| 20260902061016 | 76 | 170 | 0.0 | 0.9 | 0.00 | 0.00 | 0.00 | 79 | |
| 20260902060017 | 76 | 139 | 0.0 | 0.9 | 0.00 | 0.00 | 0.00 | 78 | |
| 20260902055019 | 76 | 179 | 0.0 | 0.9 | 0.00 | 0.00 | 0.00 | 78 | |
| 20260902054017 | 76 | 179 | 0.0 | 0.0 | 0.00 | 0.00 | 0.00 | 78 | |
| 20260902053016 | 76 | 179 | 0.0 | 0.0 | 0.00 | 0.00 | 0.00 | 77 | |
| 20260902052017 | 76 | 177 | 0.0 | 0.9 | 0.00 | 0.00 | 0.00 | 77 | |
| 20260902051017 | 77 | 177 | 0.0 | 0.9 | 0.00 | 0.00 | 0.00 | 76 | |
| 20260902050016 | 77 | 134 | 0.0 | 0.9 | 0.00 | 0.00 | 0.00 | 76 | |
| 20260902045017 | 77 | 0.0 | 0.0 | 0.00 | 0.00 | 0.00 | 76 | ||
| 20260902044017 | 77 | 134 | 0.0 | 0.0 | 0.00 | 0.00 | 0.00 | 75 | |
| 20260902043016 | 77 | 134 | 0.0 | 0.0 | 0.00 | 0.00 | 0.00 | 75 | |
| 20260902042016 | 78 | 134 | 0.0 | 0.0 | 0.00 | 0.00 | 0.00 | 75 | |
| 20260902041037 | 78 | 134 | 0.0 | 0.0 | 0.00 | 0.00 | 0.00 | 74 | |
| 20260902040017 | 78 | 134 | 0.0 | 0.0 | 0.00 | 0.00 | 0.00 | 74 | |
| 20260902035016 | 78 | 134 | 0.0 | 0.9 | 0.00 | 0.00 | 0.00 | 74 | |
| 20260902034028 | 79 | 0.0 | 0.0 | 0.00 | 0.00 | 0.00 | 73 | ||
| 20260902033017 | 79 | 134 | 0.0 | 0.0 | 0.00 | 0.00 | 0.00 | 73 | |
| 20260902032036 | 79 | 134 | 0.0 | 0.9 | 0.00 | 0.00 | 0.00 | 73 | |
| 20260902031037 | 79 | 134 | 0.0 | 0.0 | 0.00 | 0.00 | 0.00 | 72 | |
| 20260902030037 | 80 | 134 | 0.0 | 0.9 | 0.00 | 0.00 | 0.00 | 72 | |
| 20260902025036 | 80 | 134 | 0.0 | 0.0 | 0.00 | 0.00 | 0.00 | 72 | |
| 20260902024017 | 80 | 134 | 0.0 | 0.0 | 0.00 | 0.00 | 0.00 | 71 | |
| 20260902023017 | 80 | 134 | 0.0 | 0.0 | 0.00 | 0.00 | 0.00 | 71 | |
| 20260902022017 | 80 | 134 | 0.0 | 0.0 | 0.00 | 0.00 | 0.00 | 70 | |
| 20260902021016 | 80 | 0.0 | 0.0 | 0.00 | 0.00 | 0.00 | 70 | ||
| 20260902020017 | 81 | 0.0 | 0.0 | 0.00 | 0.00 | 0.00 | 69 | ||
| 20260902015016 | 81 | 0.0 | 0.0 | 0.00 | 0.00 | 0.00 | 69 | ||
| 20260902014017 | 81 | 0.0 | 0.0 | 0.00 | 0.00 | 0.00 | 68 | ||
| 20260902013037 | 82 | 134 | 0.0 | 0.0 | 0.00 | 0.00 | 0.00 | 68 | |
| 20260902012017 | 82 | 134 | 0.0 | 0.0 | 0.00 | 0.00 | 0.00 | 68 | |
| 20260902011016 | 83 | 134 | 0.0 | 0.0 | 0.00 | 0.00 | 0.00 | 67 | |
| 20260902010017 | 84 | 171 | 0.9 | 1.7 | 0.00 | 0.00 | 0.00 | 67 | |
| 20260902005037 | 84 | 165 | 0.9 | 1.7 | 0.00 | 0.00 | 0.00 | 66 | |
| 20260902004018 | 84 | 161 | 0.0 | 0.9 | 0.00 | 0.00 | 0.00 | 66 | |
| 20260902003016 | 85 | 155 | 0.0 | 0.9 | 0.00 | 0.00 | 0.00 | 65 | |
| 20260902002017 | 86 | 134 | 0.0 | 0.0 | 0.00 | 0.00 | 0.00 | 64 | |
| 20260902001017 | 87 | 167 | 0.0 | 0.9 | 0.00 | 0.00 | 0.00 | 64 | |
| 20260902000017 | 89 | 158 | 0.0 | 0.9 | 0.00 | 0.00 | 0.00 | 63 | |
| 20260901235017 | 90 | 196 | 0.9 | 1.7 | 0.00 | 0.00 | 0.00 | 62 | |
| 20260901234017 | 92 | 183 | 2.6 | 4.3 | 0.00 | 0.00 | 0.00 | 62 | |
| 20260901233017 | 96 | 182 | 1.7 | 2.6 | 0.00 | 0.00 | 0.00 | 62 | |
| 20260901232017 | 98 | 185 | 1.7 | 4.3 | 0.00 | 0.00 | 0.00 | 61 | |
| 20260901231017 | 93 | 183 | 2.6 | 5.2 | 0.00 | 0.00 | 0.00 | 60 | |
| 20260901230017 | 93 | 183 | 2.6 | 6.1 | 0.00 | 0.00 | 0.00 | 60 | |
| 20260901225016 | 94 | 186 | 0.9 | 2.6 | 0.00 | 0.00 | 0.00 | 59 | |
| 20260901224017 | 94 | 192 | 0.9 | 1.7 | 0.00 | 0.00 | 0.00 | 58 | |
| 20260901223037 | 95 | 183 | 1.7 | 3.5 | 0.00 | 0.00 | 0.00 | 58 | |
| 20260901222037 | 95 | 183 | 1.7 | 5.2 | 0.00 | 0.00 | 0.00 | 57 | |
| 20260901221018 | 96 | 180 | 1.7 | 4.3 | 0.00 | 0.00 | 0.00 | 57 | |
| 20260901220017 | 103 | 188 | 1.7 | 3.5 | 0.00 | 0.00 | 0.00 | 57 | |
| 20260901215016 | 105 | 190 | 1.7 | 3.5 | 0.00 | 0.00 | 0.00 | 56 | |
| 20260901214017 | 106 | 183 | 1.7 | 4.3 | 0.00 | 0.00 | 0.00 | 56 | |
| 20260901213017 | 104 | 193 | 2.6 | 4.3 | 0.00 | 0.00 | 0.00 | 55 |